< < Back
Terminal Aerodrome Forecast


Current Version              Previous Versions:   1  2  3  4  5  6  7  8  9  

Terminal Aerodrome Forecast

359
FTUS42 KTAE 250500
TAFTLH
TAF
KTLH 250520Z 2506/2606 00000KT P6SM SKC
     FM251400 35007KT P6SM SKC
     FM260000 00000KT P6SM SKC=



Latest METAR

710
SAUS80 KWBC 251800 RRA
MTRTLH
METAR KTLH 251753Z VRB05KT 10SM CLR 26/06 A3001 RMK AO2 SLP162 T02560061
10261 20067 58015 $


USA.gov is the U.S. government's official web portal to all federal, state and local government web resources and services.